Time;durP1;ratioP1;P1;durP2;ratioP2;P2;SDS_P1;SDS_P2;PMS_P1;PMS_P2;Temp;Humidity;BMP_temperature;BMP_pressure;BME280_temperature;BME280_humidity;BME280_pressure;Samples;Min_cycle;Max_cycle;Signal;HPM_P1;HPM_P2
2021/01/22 00:01:48;;;;;;;5.30;1.33;;;10.00;99.90;;;;;;5045804;28;20111;-72
2021/01/22 00:04:15;;;;;;;5.57;1.55;;;10.00;99.90;;;;;;5052085;28;20397;-72
2021/01/22 00:06:44;;;;;;;2.65;1.40;;;9.90;99.90;;;;;;5051414;28;20108;-72
2021/01/22 00:09:11;;;;;;;4.13;1.30;;;10.00;99.90;;;;;;5017980;28;20037;-71
2021/01/22 00:11:37;;;;;;;3.40;1.05;;;9.90;99.90;;;;;;5047816;28;20029;-71
2021/01/22 00:14:03;;;;;;;4.85;1.30;;;9.90;99.90;;;;;;5048769;28;20052;-72
2021/01/22 00:16:28;;;;;;;1.48;0.60;;;9.80;99.90;;;;;;5047395;28;20053;-71
2021/01/22 00:18:56;;;;;;;3.75;1.10;;;9.70;99.90;;;;;;5051477;28;20060;-71
2021/01/22 00:21:22;;;;;;;3.08;1.95;;;9.60;99.90;;;;;;5052068;28;20031;-71
2021/01/22 00:23:47;;;;;;;4.25;3.20;;;9.40;99.90;;;;;;5049037;28;20041;-72
2021/01/22 00:26:13;;;;;;;4.63;4.00;;;9.40;99.90;;;;;;5050796;28;20016;-72
2021/01/22 00:28:39;;;;;;;7.28;4.40;;;9.30;99.90;;;;;;5030550;28;20115;-71
2021/01/22 00:31:06;;;;;;;4.40;4.10;;;9.20;99.90;;;;;;5048820;28;20021;-71
2021/01/22 00:33:32;;;;;;;5.03;4.60;;;9.00;99.90;;;;;;5034545;28;20025;-71
2021/01/22 00:35:57;;;;;;;3.90;3.60;;;8.90;99.90;;;;;;5050375;28;20025;-73
2021/01/22 00:38:23;;;;;;;3.60;3.10;;;8.70;99.90;;;;;;5034378;28;20036;-72
2021/01/22 00:40:49;;;;;;;3.80;3.50;;;8.60;99.90;;;;;;5050882;28;20037;-71
2021/01/22 00:43:15;;;;;;;3.95;3.65;;;8.50;99.90;;;;;;5050975;28;20430;-72
2021/01/22 00:45:41;;;;;;;4.10;3.80;;;8.40;99.90;;;;;;5041123;28;20029;-71
2021/01/22 00:48:10;;;;;;;3.95;3.47;;;8.30;99.90;;;;;;5051434;28;20485;-71
2021/01/22 00:50:40;;;;;;;3.95;3.65;;;8.10;99.90;;;;;;5034594;28;20025;-71
2021/01/22 00:53:06;;;;;;;3.40;3.20;;;7.90;99.90;;;;;;5052739;28;20138;-71
2021/01/22 00:55:31;;;;;;;3.45;3.22;;;7.90;99.90;;;;;;5034527;28;20170;-71
2021/01/22 00:57:59;;;;;;;3.15;2.95;;;7.70;99.90;;;;;;5047770;28;20477;-71
2021/01/22 01:00:26;;;;;;;3.08;2.88;;;7.60;99.90;;;;;;5041852;28;20411;-71
2021/01/22 01:02:51;;;;;;;3.05;2.85;;;7.40;99.90;;;;;;5028273;28;20045;-71
2021/01/22 01:05:17;;;;;;;3.08;2.88;;;7.20;99.90;;;;;;5052525;28;20028;-71
2021/01/22 01:07:43;;;;;;;3.10;2.90;;;7.20;99.90;;;;;;5051904;28;20424;-71
2021/01/22 01:10:09;;;;;;;2.75;2.55;;;7.20;99.90;;;;;;5053996;28;20057;-71
2021/01/22 01:12:35;;;;;;;3.22;3.03;;;7.10;99.90;;;;;;5046686;28;20092;-71
2021/01/22 01:15:00;;;;;;;4.53;4.22;;;7.10;99.90;;;;;;5041535;28;20338;-71
2021/01/22 01:17:26;;;;;;;5.10;4.80;;;7.00;99.90;;;;;;5044925;28;20024;-71
2021/01/22 01:19:51;;;;;;;5.82;5.43;;;7.00;99.90;;;;;;5050809;28;20036;-71
2021/01/22 01:22:17;;;;;;;5.00;4.70;;;6.80;99.90;;;;;;5050037;28;20021;-71
2021/01/22 01:24:43;;;;;;;5.03;4.72;;;6.70;99.90;;;;;;5048202;28;20477;-71
2021/01/22 01:27:08;;;;;;;5.57;5.18;;;6.70;99.90;;;;;;5046765;28;20112;-71
2021/01/22 01:29:34;;;;;;;6.47;5.97;;;6.80;99.90;;;;;;5043667;28;20362;-70
2021/01/22 01:32:00;;;;;;;6.70;6.20;;;6.80;99.90;;;;;;5047900;28;20022;-71
2021/01/22 01:34:25;;;;;;;6.50;6.00;;;6.70;99.90;;;;;;5026603;28;20017;-71
2021/01/22 01:36:51;;;;;;;6.25;5.78;;;6.70;99.90;;;;;;5046968;28;20043;-71
2021/01/22 01:39:17;;;;;;;6.82;6.18;;;6.70;99.90;;;;;;5046611;28;20048;-70
2021/01/22 01:41:42;;;;;;;7.22;6.65;;;6.70;99.90;;;;;;5047155;28;20043;-70
2021/01/22 01:44:08;;;;;;;7.28;6.68;;;6.70;99.90;;;;;;5046253;28;20094;-70
2021/01/22 01:46:34;;;;;;;5.50;5.10;;;6.70;99.90;;;;;;5048808;28;20074;-70
2021/01/22 01:49:00;;;;;;;7.30;6.70;;;6.60;99.90;;;;;;5034208;28;20546;-70
2021/01/22 01:51:26;;;;;;;5.35;4.85;;;6.60;99.90;;;;;;5047430;28;20021;-70
2021/01/22 01:53:52;;;;;;;5.40;5.00;;;6.60;99.90;;;;;;5049634;28;20025;-70
2021/01/22 01:56:17;;;;;;;5.10;4.60;;;6.60;99.90;;;;;;5050669;28;20067;-70
2021/01/22 01:58:43;;;;;;;5.22;4.75;;;6.60;99.90;;;;;;5047016;28;20093;-70
2021/01/22 02:01:10;;;;;;;8.20;5.18;;;6.60;99.90;;;;;;5033269;28;20021;-71
2021/01/22 02:03:35;;;;;;;4.97;4.00;;;6.60;99.90;;;;;;5048809;28;20389;-71
2021/01/22 02:06:03;;;;;;;3.95;3.55;;;6.60;99.90;;;;;;5028983;28;20017;-71
2021/01/22 02:08:29;;;;;;;4.15;3.83;;;6.60;99.90;;;;;;5049874;28;20032;-71
2021/01/22 02:10:56;;;;;;;5.57;4.28;;;6.60;99.90;;;;;;5034328;28;20476;-70
2021/01/22 02:13:22;;;;;;;6.22;4.25;;;6.60;99.90;;;;;;5046194;28;20437;-71
2021/01/22 02:15:49;;;;;;;6.35;5.00;;;6.60;99.90;;;;;;5044285;28;20022;-71
2021/01/22 02:18:16;;;;;;;5.63;4.97;;;6.50;99.90;;;;;;5049515;28;20025;-71
2021/01/22 02:20:52;;;;;;;6.78;5.30;;;6.40;99.90;;;;;;5041787;28;20101;-70
2021/01/22 02:23:20;;;;;;;5.82;4.60;;;6.40;99.90;;;;;;5050292;28;20119;-70
2021/01/22 02:25:47;;;;;;;6.18;4.25;;;6.40;99.90;;;;;;5048997;28;20025;-71
2021/01/22 02:28:14;;;;;;;5.05;4.65;;;6.50;99.90;;;;;;5048458;28;20034;-71
2021/01/22 02:30:47;;;;;;;4.97;4.47;;;6.50;99.90;;;;;;5044356;28;20025;-71
2021/01/22 02:33:14;;;;;;;6.10;4.78;;;6.60;99.90;;;;;;5047564;28;20032;-71
2021/01/22 02:35:40;;;;;;;5.65;4.10;;;6.50;99.90;;;;;;5052238;28;20125;-71
2021/01/22 02:38:08;;;;;;;5.82;4.40;;;6.50;99.90;;;;;;5048047;28;20037;-71
2021/01/22 02:40:36;;;;;;;5.47;3.80;;;6.40;99.90;;;;;;5050368;28;20035;-70
2021/01/22 02:43:03;;;;;;;6.25;3.95;;;6.50;99.90;;;;;;5049342;28;20037;-70
2021/01/22 02:45:29;;;;;;;4.55;3.90;;;6.50;99.90;;;;;;5052288;28;20031;-70
2021/01/22 02:47:56;;;;;;;5.03;3.70;;;6.40;99.90;;;;;;5048503;28;20053;-70
2021/01/22 02:50:35;;;;;;;6.50;3.70;;;6.40;99.90;;;;;;5051554;28;20099;-70
2021/01/22 02:53:05;;;;;;;4.28;3.13;;;6.40;99.90;;;;;;5047683;28;20040;-70
2021/01/22 02:55:34;;;;;;;4.05;3.05;;;6.40;99.90;;;;;;5050645;28;20090;-70
2021/01/22 02:58:27;;;;;;;3.85;3.03;;;6.50;99.90;;;;;;5027665;28;20048;-70
2021/01/22 03:00:54;;;;;;;;;;;6.40;99.90;;;;;;5050197;28;20576;-70
2021/01/22 03:03:46;;;;;;;4.88;2.72;;;6.40;99.90;;;;;;5049018;28;19920;-70
2021/01/22 03:06:18;;;;;;;5.55;3.50;;;6.40;99.90;;;;;;5042461;28;20132;-70
2021/01/22 03:08:44;;;;;;;5.13;3.83;;;6.40;99.90;;;;;;5044889;28;20495;-70
2021/01/22 03:11:12;;;;;;;6.68;4.32;;;6.40;99.90;;;;;;5043960;28;20155;-70
2021/01/22 03:13:39;;;;;;;6.90;4.35;;;6.40;99.90;;;;;;5047821;28;20021;-70
2021/01/22 03:16:05;;;;;;;7.22;5.07;;;6.40;99.90;;;;;;5047441;28;20063;-70
2021/01/22 03:18:31;;;;;;;5.50;4.50;;;6.40;99.90;;;;;;5048966;28;20060;-70
2021/01/22 03:20:58;;;;;;;9.73;5.57;;;6.40;99.90;;;;;;5043282;28;20030;-70
2021/01/22 03:23:24;;;;;;;7.18;4.80;;;6.40;99.90;;;;;;5044755;28;20413;-70
2021/01/22 03:25:49;;;;;;;8.38;6.22;;;6.40;99.90;;;;;;5049793;28;20028;-70
2021/01/22 03:28:15;;;;;;;9.77;6.65;;;6.30;99.90;;;;;;5026136;28;20036;-70
2021/01/22 03:30:41;;;;;;;9.57;6.63;;;6.30;99.90;;;;;;5048205;28;20027;-70
2021/01/22 03:33:07;;;;;;;10.82;7.15;;;6.30;99.90;;;;;;5047036;28;20405;-70
2021/01/22 03:35:32;;;;;;;12.27;7.28;;;6.20;99.90;;;;;;5047134;28;20024;-70
2021/01/22 03:37:58;;;;;;;14.65;7.95;;;6.20;99.90;;;;;;5040919;28;20121;-70
2021/01/22 03:40:25;;;;;;;10.02;7.05;;;6.20;99.90;;;;;;5048819;28;20032;-70
2021/01/22 03:42:51;;;;;;;13.80;7.28;;;6.20;99.90;;;;;;5027480;28;20029;-70
2021/01/22 03:45:17;;;;;;;17.45;7.97;;;6.20;99.90;;;;;;5049678;28;20111;-70
2021/01/22 03:47:43;;;;;;;11.32;7.95;;;6.20;99.90;;;;;;5050802;28;20017;-70
2021/01/22 03:50:10;;;;;;;11.45;7.20;;;6.30;99.90;;;;;;5049395;28;20396;-70
2021/01/22 03:52:36;;;;;;;11.63;7.28;;;6.20;99.90;;;;;;5048931;28;20512;-70
2021/01/22 03:55:03;;;;;;;14.98;9.20;;;6.20;99.90;;;;;;5046279;28;20037;-70
2021/01/22 03:57:29;;;;;;;11.95;8.05;;;6.20;99.90;;;;;;5047806;28;20028;-70
2021/01/22 03:59:54;;;;;;;16.17;8.73;;;6.20;99.90;;;;;;5043988;28;20116;-70
2021/01/22 04:02:21;;;;;;;15.35;9.15;;;6.20;99.90;;;;;;5049431;28;20040;-70
2021/01/22 04:04:46;;;;;;;12.27;8.18;;;6.10;99.90;;;;;;5048801;28;20362;-70
2021/01/22 04:07:12;;;;;;;12.30;7.72;;;6.10;99.90;;;;;;5045838;28;20028;-70
2021/01/22 04:09:38;;;;;;;12.85;8.45;;;6.20;99.90;;;;;;5043177;28;20026;-70
2021/01/22 04:12:04;;;;;;;13.10;8.10;;;6.30;99.90;;;;;;5043634;28;20025;-70
2021/01/22 04:14:29;;;;;;;12.13;7.60;;;6.20;99.90;;;;;;5049741;28;20032;-70
2021/01/22 04:16:57;;;;;;;10.32;7.15;;;6.20;99.90;;;;;;5050325;28;20127;-70
2021/01/22 04:19:23;;;;;;;12.32;7.97;;;6.20;99.90;;;;;;5040779;28;20033;-70
2021/01/22 04:21:49;;;;;;;11.93;7.65;;;6.20;99.90;;;;;;5050765;28;20516;-70
2021/01/22 04:24:15;;;;;;;13.10;7.72;;;6.20;99.90;;;;;;5031047;28;20118;-70
2021/01/22 04:26:41;;;;;;;15.20;7.68;;;6.20;99.90;;;;;;5049782;28;20032;-70
2021/01/22 04:29:07;;;;;;;10.93;7.32;;;6.20;99.90;;;;;;5047556;28;20037;-70
2021/01/22 04:31:33;;;;;;;13.82;8.18;;;6.30;99.90;;;;;;5041662;28;20037;-70
2021/01/22 04:33:59;;;;;;;17.55;9.25;;;6.30;99.90;;;;;;5054321;28;20025;-70
2021/01/22 04:36:24;;;;;;;12.40;7.55;;;6.30;99.90;;;;;;5051822;28;20087;-70
2021/01/22 04:38:50;;;;;;;9.70;7.45;;;6.30;99.90;;;;;;5047202;28;20075;-70
2021/01/22 04:41:16;;;;;;;14.85;7.70;;;6.30;99.90;;;;;;5046859;28;20024;-70
2021/01/22 04:43:44;;;;;;;13.98;7.88;;;6.40;99.90;;;;;;5047401;28;20507;-70
2021/01/22 04:46:11;;;;;;;13.38;8.50;;;6.40;99.90;;;;;;5048292;28;20045;-70
2021/01/22 04:48:38;;;;;;;13.00;7.38;;;6.40;99.90;;;;;;5051697;28;20024;-70
2021/01/22 04:51:05;;;;;;;14.05;7.38;;;6.40;99.90;;;;;;5051735;28;20052;-70
2021/01/22 04:53:33;;;;;;;12.43;7.03;;;6.40;99.90;;;;;;5049078;28;20024;-70
2021/01/22 04:56:00;;;;;;;13.85;8.10;;;6.40;99.90;;;;;;5045620;28;20051;-70
2021/01/22 04:58:28;;;;;;;14.63;8.02;;;6.30;99.90;;;;;;5052928;28;20035;-70
2021/01/22 05:00:55;;;;;;;16.98;7.85;;;6.40;99.90;;;;;;5052544;28;20065;-70
2021/01/22 05:03:26;;;;;;;12.77;7.80;;;6.40;99.90;;;;;;5052330;28;20106;-70
2021/01/22 05:05:55;;;;;;;12.90;7.97;;;6.40;99.90;;;;;;5052129;28;20029;-70
2021/01/22 05:08:21;;;;;;;15.18;8.80;;;6.50;99.90;;;;;;5046657;28;20021;-70
2021/01/22 05:10:47;;;;;;;15.88;9.63;;;6.50;99.90;;;;;;5049978;28;20025;-70
2021/01/22 05:13:13;;;;;;;18.35;9.85;;;6.50;99.90;;;;;;5048794;28;20108;-70
2021/01/22 05:15:38;;;;;;;15.10;9.27;;;6.60;99.90;;;;;;5041471;28;20049;-70
2021/01/22 05:18:06;;;;;;;18.70;9.98;;;6.60;99.90;;;;;;5052441;28;20028;-70
2021/01/22 05:20:38;;;;;;;17.95;10.57;;;6.60;99.90;;;;;;5053678;28;20104;-70
2021/01/22 05:23:06;;;;;;;15.18;9.82;;;6.70;99.90;;;;;;5046914;28;20033;-71
2021/01/22 05:25:32;;;;;;;16.67;9.95;;;6.60;99.90;;;;;;5030966;28;20025;-71
2021/01/22 05:27:58;;;;;;;16.33;10.30;;;6.60;99.90;;;;;;5052719;28;20060;-71
2021/01/22 05:30:28;;;;;;;21.67;10.00;;;6.60;99.90;;;;;;5050504;28;20545;-71
2021/01/22 05:33:15;;;;;;;19.33;10.07;;;6.60;99.90;;;;;;5050360;28;20036;-71
2021/01/22 05:35:41;;;;;;;23.45;14.65;;;6.60;99.90;;;;;;5048769;28;20021;-71
2021/01/22 05:38:07;;;;;;;23.95;12.27;;;6.60;99.90;;;;;;5043618;28;20496;-71
2021/01/22 05:40:32;;;;;;;20.35;11.88;;;6.60;99.90;;;;;;5028994;28;20445;-71
2021/01/22 05:42:59;;;;;;;26.92;13.77;;;6.60;99.90;;;;;;5049831;28;20041;-70
2021/01/22 05:45:39;;;;;;;25.60;13.70;;;6.80;99.90;;;;;;5048692;28;20074;-71
2021/01/22 05:48:23;;;;;;;24.50;13.50;;;6.70;99.90;;;;;;5052220;28;20120;-71
2021/01/22 05:50:58;;;;;;;27.05;13.70;;;6.70;99.90;;;;;;5051009;28;20021;-71
2021/01/22 05:53:25;;;;;;;23.10;12.55;;;6.70;99.90;;;;;;5041660;28;20078;-71
2021/01/22 05:56:17;;;;;;;27.48;14.32;;;6.70;99.90;;;;;;5051555;28;20032;-71
2021/01/22 05:58:45;;;;;;;25.58;11.95;;;6.70;99.90;;;;;;5044165;28;20021;-71
2021/01/22 06:01:12;;;;;;;29.67;12.80;;;6.70;99.90;;;;;;5047319;28;20458;-71
2021/01/22 06:03:40;;;;;;;23.60;11.98;;;6.70;99.90;;;;;;5028679;28;20056;-71
2021/01/22 06:06:07;;;;;;;20.60;11.25;;;6.70;99.90;;;;;;5049548;28;20040;-71
2021/01/22 06:08:34;;;;;;;20.73;11.43;;;6.60;99.90;;;;;;5046818;28;20121;-71
2021/01/22 06:11:01;;;;;;;24.90;11.98;;;6.60;99.90;;;;;;5048741;28;20022;-70
2021/01/22 06:13:28;;;;;;;18.50;10.70;;;6.60;99.90;;;;;;5050008;28;20026;-70
2021/01/22 06:15:55;;;;;;;18.00;10.35;;;6.60;99.90;;;;;;5043272;28;20063;-71
2021/01/22 06:18:30;;;;;;;20.10;10.48;;;6.60;99.90;;;;;;5047552;28;20024;-71
2021/01/22 06:21:20;;;;;;;22.95;11.38;;;6.60;99.90;;;;;;5051052;28;20496;-71
2021/01/22 06:23:49;;;;;;;24.88;11.73;;;6.60;99.90;;;;;;5030009;28;20405;-72
2021/01/22 06:26:15;;;;;;;22.30;11.73;;;6.50;99.90;;;;;;5049950;28;20020;-72
2021/01/22 06:28:43;;;;;;;23.88;12.88;;;6.50;99.90;;;;;;5049907;28;20061;-71
2021/01/22 06:31:09;;;;;;;24.27;12.90;;;6.50;99.90;;;;;;5043671;28;20389;-71
2021/01/22 06:33:36;;;;;;;23.63;12.60;;;6.60;99.90;;;;;;5045249;28;20036;-71
2021/01/22 06:36:06;;;;;;;29.38;13.93;;;6.50;99.90;;;;;;5048721;28;20017;-71
2021/01/22 06:38:33;;;;;;;31.25;13.77;;;6.50;99.90;;;;;;5048952;28;20021;-71
2021/01/22 06:40:59;;;;;;;29.15;13.52;;;6.50;99.90;;;;;;5047168;28;20039;-70
2021/01/22 06:43:25;;;;;;;22.15;11.63;;;6.50;99.90;;;;;;5041270;28;20043;-70
2021/01/22 06:46:04;;;;;;;30.95;13.10;;;6.50;99.90;;;;;;5049858;28;20444;-70
2021/01/22 06:48:58;;;;;;;23.85;13.20;;;6.50;99.90;;;;;;5046598;28;20116;-71
2021/01/22 06:51:25;;;;;;;23.08;12.77;;;6.50;99.90;;;;;;5043705;28;20029;-70
2021/01/22 06:54:10;;;;;;;33.80;13.95;;;6.50;99.90;;;;;;5047767;28;20540;-71
2021/01/22 06:57:08;;;;;;;32.78;14.68;;;6.50;99.90;;;;;;5047153;28;20032;-71
2021/01/22 06:59:40;;;;;;;29.95;16.35;;;6.60;99.90;;;;;;5012196;28;20117;-70
2021/01/22 07:02:36;;;;;;;27.38;16.15;;;6.60;99.90;;;;;;5046273;28;20443;-70
2021/01/22 07:05:22;;;;;;;31.92;16.55;;;6.60;99.90;;;;;;5047789;28;20041;-71
2021/01/22 07:07:49;;;;;;;31.40;15.68;;;6.60;99.90;;;;;;5043677;28;20144;-71
2021/01/22 07:10:14;;;;;;;36.78;17.40;;;6.50;99.90;;;;;;5050224;28;20025;-70
2021/01/22 07:12:45;;;;;;;34.65;17.27;;;6.40;99.90;;;;;;5040781;28;20358;-70
2021/01/22 07:15:29;;;;;;;41.28;17.95;;;6.50;99.90;;;;;;5044288;28;20033;-71
2021/01/22 07:17:56;;;;;;;38.78;17.60;;;6.60;99.90;;;;;;5046382;28;20048;-71
2021/01/22 07:20:22;;;;;;;35.17;14.80;;;6.60;99.90;;;;;;5046496;28;20025;-71
2021/01/22 07:22:55;;;;;;;35.97;16.02;;;6.60;99.90;;;;;;5043325;28;21037;-70
2021/01/22 07:25:40;;;;;;;39.83;16.08;;;6.60;99.90;;;;;;5047002;28;20032;-72
2021/01/22 07:28:12;;;;;;;35.13;17.50;;;6.60;99.90;;;;;;5049981;28;20388;-70
2021/01/22 07:30:41;;;;;;;38.35;18.05;;;6.50;99.90;;;;;;5044877;28;20031;-70
2021/01/22 07:33:25;;;;;;;38.53;18.95;;;6.50;99.90;;;;;;5041593;28;20075;-70
2021/01/22 07:36:01;;;;;;;41.40;18.88;;;6.40;99.90;;;;;;5047341;28;20025;-70
2021/01/22 07:38:28;;;;;;;34.55;17.65;;;6.40;99.90;;;;;;5045954;28;20541;-70
2021/01/22 07:40:55;;;;;;;40.42;20.00;;;6.50;99.90;;;;;;5045595;28;20377;-70
2021/01/22 07:43:21;;;;;;;36.58;19.10;;;6.50;99.90;;;;;;5043735;28;20037;-70
2021/01/22 07:45:47;;;;;;;41.05;20.38;;;6.50;99.90;;;;;;5030967;28;20485;-70
2021/01/22 07:48:27;;;;;;;36.30;19.10;;;6.50;99.90;;;;;;5048809;28;20071;-70
2021/01/22 07:50:53;;;;;;;40.85;20.55;;;6.50;99.90;;;;;;5045051;28;20048;-70
2021/01/22 07:53:19;;;;;;;46.13;21.13;;;6.50;99.90;;;;;;5043006;28;20033;-70
2021/01/22 07:55:52;;;;;;;42.15;20.73;;;6.60;99.90;;;;;;5049074;28;20095;-70
2021/01/22 07:58:17;;;;;;;40.20;20.98;;;6.60;99.90;;;;;;5048122;28;20025;-70
2021/01/22 08:00:43;;;;;;;44.55;21.38;;;6.50;99.90;;;;;;5045178;28;20122;-71
2021/01/22 08:03:11;;;;;;;44.25;22.63;;;6.50;99.90;;;;;;5048749;28;20021;-71
2021/01/22 08:05:38;;;;;;;44.08;21.88;;;6.50;99.90;;;;;;5042738;28;20029;-70
2021/01/22 08:08:20;;;;;;;48.47;24.60;;;6.60;99.90;;;;;;5051468;28;20037;-70
2021/01/22 08:10:46;;;;;;;49.05;23.70;;;6.60;99.90;;;;;;5045294;28;20071;-71
2021/01/22 08:13:12;;;;;;;52.63;23.88;;;6.60;99.90;;;;;;5048401;28;20412;-70
2021/01/22 08:15:38;;;;;;;46.72;23.27;;;6.60;99.90;;;;;;5051057;28;20056;-70
2021/01/22 08:18:06;;;;;;;45.38;21.35;;;6.50;99.90;;;;;;5045967;28;20481;-70
2021/01/22 08:20:36;;;;;;;54.28;24.00;;;6.60;99.90;;;;;;5050778;28;20079;-70
2021/01/22 08:23:02;;;;;;;43.90;20.85;;;6.60;99.90;;;;;;5050832;28;20071;-71
2021/01/22 08:25:32;;;;;;;48.55;22.40;;;6.50;99.90;;;;;;5049244;28;20034;-71
2021/01/22 08:27:59;;;;;;;49.67;22.73;;;6.60;99.90;;;;;;5051259;28;20490;-70
2021/01/22 08:30:26;;;;;;;40.15;21.95;;;6.60;99.90;;;;;;5045972;28;20033;-70
2021/01/22 08:32:56;;;;;;;36.58;18.70;;;6.60;99.90;;;;;;5044823;28;20067;-70
2021/01/22 08:35:24;;;;;;;35.00;18.02;;;6.70;99.90;;;;;;5049807;28;20104;-71
2021/01/22 08:37:51;;;;;;;36.05;17.80;;;6.60;99.90;;;;;;5048119;28;20020;-71
2021/01/22 08:40:17;;;;;;;43.38;18.85;;;6.70;99.90;;;;;;5047600;28;20045;-70
2021/01/22 08:43:02;;;;;;;37.50;19.00;;;6.70;99.90;;;;;;5049417;28;20070;-70
2021/01/22 08:45:28;;;;;;;44.83;19.60;;;6.70;99.90;;;;;;5051641;28;20538;-70
2021/01/22 08:47:54;;;;;;;43.20;19.65;;;6.70;99.90;;;;;;5045264;28;20048;-70
2021/01/22 08:50:21;;;;;;;40.67;19.05;;;6.80;99.90;;;;;;5051922;28;20068;-70
2021/01/22 08:52:47;;;;;;;38.05;18.10;;;6.80;99.90;;;;;;5049271;28;20025;-71
2021/01/22 08:55:20;;;;;;;36.38;17.02;;;6.90;99.90;;;;;;5044412;28;20114;-71
2021/01/22 08:58:02;;;;;;;32.15;16.20;;;6.70;99.90;;;;;;5048860;28;20029;-70
2021/01/22 09:00:28;;;;;;;35.28;16.80;;;6.90;99.90;;;;;;5048288;28;20017;-70
2021/01/22 09:02:54;;;;;;;36.17;16.75;;;6.80;99.90;;;;;;5051551;28;20028;-70
2021/01/22 09:05:20;;;;;;;41.35;17.98;;;6.80;99.90;;;;;;5051161;28;20017;-70
2021/01/22 09:07:46;;;;;;;40.90;16.90;;;6.80;99.90;;;;;;5043337;28;20158;-70
2021/01/22 09:10:23;;;;;;;33.90;16.63;;;6.70;99.90;;;;;;5050346;28;20049;-70
2021/01/22 09:12:49;;;;;;;36.53;18.40;;;6.70;99.90;;;;;;5049731;28;20039;-70
2021/01/22 09:15:16;;;;;;;32.80;16.38;;;6.80;99.90;;;;;;5050932;28;20025;-70
2021/01/22 09:17:49;;;;;;;35.72;16.48;;;6.70;99.90;;;;;;5046651;28;20025;-70
2021/01/22 09:20:16;;;;;;;36.20;16.65;;;6.90;99.90;;;;;;5049376;28;20029;-70
2021/01/22 09:22:43;;;;;;;34.97;17.25;;;6.90;99.90;;;;;;5045535;28;20150;-71
2021/01/22 09:25:11;;;;;;;36.25;16.50;;;6.90;99.90;;;;;;5046449;28;20044;-70
2021/01/22 09:27:39;;;;;;;38.60;17.20;;;6.80;99.90;;;;;;5045704;28;20017;-71
2021/01/22 09:30:07;;;;;;;34.40;16.05;;;6.80;99.90;;;;;;5047371;28;20032;-70
2021/01/22 09:32:33;;;;;;;31.65;16.52;;;6.90;99.90;;;;;;5044806;28;20025;-71
2021/01/22 09:34:59;;;;;;;35.30;17.50;;;6.90;99.90;;;;;;5050981;28;20028;-71
2021/01/22 09:37:24;;;;;;;37.78;17.85;;;6.90;99.90;;;;;;5049526;28;20534;-71
2021/01/22 09:39:50;;;;;;;39.60;17.40;;;7.00;99.90;;;;;;5050276;28;20155;-71
2021/01/22 09:42:16;;;;;;;38.85;19.20;;;7.00;99.90;;;;;;5043020;28;20108;-70
2021/01/22 09:44:42;;;;;;;38.65;18.58;;;7.00;99.90;;;;;;5027457;28;20057;-71
2021/01/22 09:47:08;;;;;;;35.65;19.27;;;7.00;99.90;;;;;;5038953;28;20119;-72
2021/01/22 09:49:33;;;;;;;36.83;19.48;;;6.90;99.90;;;;;;5051851;28;20040;-71
2021/01/22 09:51:59;;;;;;;39.58;19.88;;;7.00;99.90;;;;;;5047816;28;20026;-72
2021/01/22 09:54:24;;;;;;;38.33;19.35;;;7.00;99.90;;;;;;5050291;28;20381;-70
2021/01/22 09:56:50;;;;;;;38.80;19.10;;;6.90;99.90;;;;;;5045790;28;20032;-71
2021/01/22 09:59:16;;;;;;;33.95;19.23;;;6.90;99.90;;;;;;5046159;28;20029;-70
2021/01/22 10:01:41;;;;;;;43.75;20.63;;;6.90;99.90;;;;;;5048626;28;20030;-71
2021/01/22 10:04:07;;;;;;;31.33;16.45;;;6.90;99.90;;;;;;5048941;28;20045;-71
2021/01/22 10:06:34;;;;;;;33.53;16.50;;;6.90;99.90;;;;;;5037270;28;20482;-71
2021/01/22 10:08:59;;;;;;;29.25;16.55;;;6.90;99.90;;;;;;5044532;28;20041;-71
2021/01/22 10:11:25;;;;;;;37.58;18.23;;;7.10;99.90;;;;;;5039748;28;20036;-71
2021/01/22 10:13:55;;;;;;;33.78;17.23;;;7.00;99.90;;;;;;5043425;28;20051;-71
2021/01/22 10:16:23;;;;;;;35.58;17.75;;;7.00;99.90;;;;;;5044052;28;20024;-71
2021/01/22 10:18:50;;;;;;;32.33;17.58;;;7.10;99.90;;;;;;5047820;28;20063;-71
2021/01/22 10:21:17;;;;;;;31.83;17.88;;;7.00;99.90;;;;;;5044601;28;20393;-71
2021/01/22 10:23:44;;;;;;;26.88;16.77;;;7.10;99.90;;;;;;5030058;28;20434;-71
2021/01/22 10:26:09;;;;;;;34.83;17.30;;;7.20;99.90;;;;;;5047765;28;20437;-72
2021/01/22 10:28:35;;;;;;;33.22;19.90;;;7.20;99.90;;;;;;5046291;28;20048;-72
2021/01/22 10:31:00;;;;;;;33.47;18.35;;;7.40;99.90;;;;;;5041915;28;20063;-72
2021/01/22 10:33:26;;;;;;;34.92;19.23;;;7.40;99.90;;;;;;5048026;28;20444;-72
2021/01/22 10:35:52;;;;;;;32.00;15.93;;;7.40;99.90;;;;;;5047838;28;20039;-72
2021/01/22 10:38:17;;;;;;;30.08;17.17;;;7.60;99.90;;;;;;5046889;28;20021;-71
2021/01/22 10:40:43;;;;;;;28.25;16.20;;;7.60;99.90;;;;;;5050142;28;20041;-71
2021/01/22 10:43:09;;;;;;;27.00;13.88;;;7.60;99.90;;;;;;5041898;28;20069;-72
2021/01/22 10:45:34;;;;;;;26.85;13.48;;;7.50;99.90;;;;;;5044435;28;20059;-71
2021/01/22 10:48:00;;;;;;;21.67;11.80;;;7.50;99.90;;;;;;5045707;28;20025;-71
2021/01/22 10:50:26;;;;;;;30.88;13.95;;;7.50;99.90;;;;;;5043573;28;20021;-71
2021/01/22 10:52:52;;;;;;;23.55;12.43;;;7.50;99.90;;;;;;5050482;28;20041;-71
2021/01/22 10:55:18;;;;;;;24.25;13.07;;;7.60;99.90;;;;;;5047363;28;20370;-71
2021/01/22 10:57:45;;;;;;;23.80;11.70;;;7.60;99.90;;;;;;5037365;28;20064;-71
2021/01/22 11:00:11;;;;;;;20.58;11.20;;;7.70;99.90;;;;;;5046035;28;20033;-71
2021/01/22 11:02:37;;;;;;;17.80;9.52;;;7.70;99.90;;;;;;5045220;28;20020;-71
2021/01/22 11:05:03;;;;;;;22.92;9.80;;;7.80;99.90;;;;;;5042453;28;20037;-71
2021/01/22 11:07:29;;;;;;;16.23;9.77;;;7.80;99.90;;;;;;5048233;28;20029;-71
2021/01/22 11:09:54;;;;;;;16.98;10.32;;;7.90;99.90;;;;;;5044224;28;20064;-71
2021/01/22 11:12:20;;;;;;;17.42;8.45;;;7.80;99.90;;;;;;5046974;28;20029;-71
2021/01/22 11:14:47;;;;;;;17.08;8.25;;;7.90;99.90;;;;;;5047430;28;20024;-71
2021/01/22 11:17:13;;;;;;;19.80;8.02;;;7.80;99.90;;;;;;5050743;28;20025;-71
2021/01/22 11:19:38;;;;;;;16.25;8.32;;;7.80;99.90;;;;;;5045081;28;20060;-71
2021/01/22 11:22:04;;;;;;;18.02;6.40;;;7.80;99.90;;;;;;5046595;28;20041;-71
2021/01/22 11:24:30;;;;;;;13.23;7.40;;;7.80;99.90;;;;;;5050290;28;20037;-71
2021/01/22 11:26:56;;;;;;;11.13;6.25;;;7.70;99.90;;;;;;5041309;28;20048;-71
2021/01/22 11:29:21;;;;;;;15.48;6.35;;;7.70;99.90;;;;;;5049715;28;20075;-71
2021/01/22 11:31:47;;;;;;;18.27;6.78;;;7.80;99.90;;;;;;5045603;28;20055;-71
2021/01/22 11:34:12;;;;;;;11.07;6.00;;;7.70;99.90;;;;;;5042718;28;20037;-71
2021/01/22 11:36:38;;;;;;;11.07;6.90;;;7.70;99.90;;;;;;5046558;28;20032;-71
2021/01/22 11:39:04;;;;;;;13.88;5.47;;;7.80;99.90;;;;;;5046477;28;20032;-71
2021/01/22 11:41:29;;;;;;;12.20;6.07;;;7.80;99.90;;;;;;5049513;28;20374;-71
2021/01/22 11:43:55;;;;;;;10.18;5.35;;;7.90;99.90;;;;;;5032482;28;20373;-71
2021/01/22 11:46:21;;;;;;;9.88;5.28;;;7.80;99.90;;;;;;5047473;28;20049;-71
2021/01/22 11:48:48;;;;;;;10.40;4.50;;;7.90;99.90;;;;;;5028845;28;20495;-71
2021/01/22 11:51:15;;;;;;;9.82;4.53;;;8.00;99.90;;;;;;5050915;28;20025;-71
2021/01/22 11:53:42;;;;;;;14.65;4.97;;;8.00;99.90;;;;;;5048275;28;20033;-71
2021/01/22 11:56:07;;;;;;;9.60;4.10;;;8.10;99.90;;;;;;5040589;28;20009;-71
2021/01/22 11:58:33;;;;;;;12.48;5.10;;;8.20;99.90;;;;;;5047500;28;20056;-71
2021/01/22 12:00:58;;;;;;;14.13;5.18;;;8.20;99.90;;;;;;5027860;28;20021;-71
2021/01/22 12:03:25;;;;;;;11.18;4.38;;;8.20;99.90;;;;;;5046601;28;20095;-71
2021/01/22 12:05:51;;;;;;;10.77;4.60;;;8.30;99.90;;;;;;5048682;28;20029;-71
2021/01/22 12:08:17;;;;;;;9.85;4.32;;;8.40;99.90;;;;;;5033834;28;20024;-71
2021/01/22 12:10:42;;;;;;;11.65;4.68;;;8.40;99.90;;;;;;5042135;28;20423;-71
2021/01/22 12:13:08;;;;;;;13.48;4.85;;;8.40;99.90;;;;;;5027604;28;20393;-71
2021/01/22 12:15:33;;;;;;;14.18;4.88;;;8.50;99.90;;;;;;5048371;28;20140;-71
2021/01/22 12:18:00;;;;;;;11.00;4.55;;;8.60;99.90;;;;;;5049357;28;20024;-71
2021/01/22 12:20:26;;;;;;;13.85;4.55;;;8.50;99.90;;;;;;5043299;28;20556;-71
2021/01/22 12:22:51;;;;;;;6.65;3.60;;;8.60;99.90;;;;;;5044925;28;20112;-71
2021/01/22 12:25:17;;;;;;;9.18;4.40;;;8.50;99.90;;;;;;5048551;28;20052;-71
2021/01/22 12:27:43;;;;;;;15.25;4.18;;;8.60;99.90;;;;;;5045705;28;20127;-71
2021/01/22 12:30:09;;;;;;;12.30;4.00;;;8.60;99.90;;;;;;5041656;28;20032;-71
2021/01/22 12:32:35;;;;;;;8.95;3.80;;;8.60;99.90;;;;;;5046003;28;20025;-71
2021/01/22 12:35:00;;;;;;;14.48;5.07;;;8.70;99.90;;;;;;5048156;28;20044;-72
2021/01/22 12:37:26;;;;;;;15.75;5.00;;;8.80;99.90;;;;;;5049597;28;20036;-71
2021/01/22 12:39:52;;;;;;;10.20;4.10;;;8.80;99.90;;;;;;5045387;28;21405;-71
2021/01/22 12:42:17;;;;;;;10.02;4.15;;;8.80;99.90;;;;;;5043021;28;20021;-71
2021/01/22 12:44:43;;;;;;;11.68;3.63;;;8.90;99.90;;;;;;5048671;28;20489;-71
2021/01/22 12:47:09;;;;;;;11.60;3.72;;;8.90;99.90;;;;;;5045688;28;20030;-71
2021/01/22 12:49:34;;;;;;;11.10;4.20;;;8.80;99.90;;;;;;5047706;28;20032;-71